Time;durP1;ratioP1;P1;durP2;ratioP2;P2;SDS_P1;SDS_P2;PMS_P1;PMS_P2;Temp;Humidity;BMP_temperature;BMP_pressure;BME280_temperature;BME280_humidity;BME280_pressure;Samples;Min_cycle;Max_cycle;Signal;HPM_P1;HPM_P2
2020/07/30 00:01:22;;;;;;;6.6;5;;;;;;;18.9;85.48535;941.3645;;;;
2020/07/30 00:03:51;;;;;;;8.1;5.6;;;;;;;18.9;85.36914;941.3636;;;;
2020/07/30 00:06:20;;;;;;;8.1;5.6;;;;;;;18.81;85.75879;941.3625;;;;
2020/07/30 00:08:45;;;;;;;8.1;5.9;;;;;;;18.59;87.05273;941.3276;;;;
2020/07/30 00:11:13;;;;;;;7.4;5.9;;;;;;;18.56;87.34961;941.2975;;;;
2020/07/30 00:13:41;;;;;;;7;5.9;;;;;;;18.51;87.57324;941.2847;;;;
2020/07/30 00:16:12;;;;;;;8.6;6.2;;;;;;;18.46;87.78125;941.3323;;;;
2020/07/30 00:18:38;;;;;;;8.4;6;;;;;;;18.47;87.81836;941.3717;;;;
2020/07/30 00:21:04;;;;;;;7.3;5.7;;;;;;;18.54;87.48535;941.3544;;;;
2020/07/30 00:23:30;;;;;;;11;6.1;;;;;;;18.67;86.67285;941.3328;;;;
2020/07/30 00:25:55;;;;;;;8.8;5.8;;;;;;;18.73;86.66211;941.3348;;;;
2020/07/30 00:28:20;;;;;;;8.5;5.9;;;;;;;18.83;85.94824;941.3826;;;;
2020/07/30 00:30:46;;;;;;;6.5;5.8;;;;;;;18.93;84.83887;941.4648;;;;
2020/07/30 00:33:14;;;;;;;9.2;5.5;;;;;;;18.99;84.03418;941.425;;;;
2020/07/30 00:35:39;;;;;;;8.2;6;;;;;;;19;84.35059;941.395;;;;
2020/07/30 00:38:06;;;;;;;7.1;5.3;;;;;;;18.99;84.53516;941.4331;;;;
2020/07/30 00:40:31;;;;;;;7.6;5.9;;;;;;;19.06;83.82715;941.4355;;;;
2020/07/30 00:43:00;;;;;;;8.2;5.9;;;;;;;19.1;83.62402;941.4645;;;;
2020/07/30 00:45:30;;;;;;;8.9;5.7;;;;;;;19.02;84.14453;941.4754;;;;
2020/07/30 00:47:58;;;;;;;7.1;5.6;;;;;;;18.83;84.83105;941.4625;;;;
2020/07/30 00:50:30;;;;;;;9.2;6.2;;;;;;;18.66;85.78711;941.416;;;;
2020/07/30 00:52:55;;;;;;;7.2;5.8;;;;;;;18.54;86.46191;941.4841;;;;
2020/07/30 00:55:23;;;;;;;6.6;5.8;;;;;;;18.6;85.98438;941.5115;;;;
2020/07/30 00:57:51;;;;;;;8.9;6.1;;;;;;;18.59;85.84277;941.4777;;;;
2020/07/30 01:00:16;;;;;;;8.3;6.1;;;;;;;18.54;86.05273;941.5745;;;;
2020/07/30 01:02:41;;;;;;;8.4;6;;;;;;;18.43;86.48535;941.573;;;;
2020/07/30 01:05:09;;;;;;;9.9;6.5;;;;;;;18.22;87.74609;941.5394;;;;
2020/07/30 01:07:34;;;;;;;9.6;6.3;;;;;;;18.26;87.71875;941.5673;;;;
2020/07/30 01:09:59;;;;;;;8.3;6.5;;;;;;;18.39;86.9668;941.5588;;;;
2020/07/30 01:12:24;;;;;;;6.1;5.5;;;;;;;18.49;86.2207;941.6108;;;;
2020/07/30 01:14:52;;;;;;;7.8;5.7;;;;;;;18.51;86.06152;941.6217;;;;
2020/07/30 01:17:17;;;;;;;7.2;6;;;;;;;18.46;86.08594;941.6016;;;;
2020/07/30 01:19:44;;;;;;;7.5;6;;;;;;;18.35;86.44629;941.5789;;;;
2020/07/30 01:22:09;;;;;;;8.8;6.2;;;;;;;18.24;87.19141;941.5023;;;;
2020/07/30 01:24:38;;;;;;;7.5;5.9;;;;;;;18.24;87.26172;941.5595;;;;
2020/07/30 01:27:03;;;;;;;7;5.8;;;;;;;18.34;86.66699;941.5644;;;;
2020/07/30 01:29:28;;;;;;;11;5.7;;;;;;;18.37;86.10254;941.5898;;;;
2020/07/30 01:31:53;;;;;;;6.3;5.5;;;;;;;18.42;85.81152;941.5386;;;;
2020/07/30 01:34:19;;;;;;;8.4;5.7;;;;;;;18.41;85.71484;941.5505;;;;
2020/07/30 01:36:44;;;;;;;9.2;5.8;;;;;;;18.36;85.91504;941.5295;;;;
2020/07/30 01:39:11;;;;;;;6.8;5.4;;;;;;;18.32;86.02246;941.514;;;;
2020/07/30 01:41:43;;;;;;;9.3;6.3;;;;;;;18.08;87.35742;941.5269;;;;
2020/07/30 01:44:09;;;;;;;8.8;6.3;;;;;;;17.87;88.31445;941.5561;;;;
2020/07/30 01:46:40;;;;;;;7.4;6.2;;;;;;;17.98;88.02246;941.5563;;;;
2020/07/30 01:49:09;;;;;;;8.1;6.3;;;;;;;18.01;87.66016;941.5034;;;;
2020/07/30 01:51:39;;;;;;;7;6.4;;;;;;;18;87.87695;941.5405;;;;
2020/07/30 01:54:04;;;;;;;10.8;7;;;;;;;18.01;87.58984;941.5485;;;;
2020/07/30 01:56:33;;;;;;;7.3;5.9;;;;;;;18.04;87.35156;941.5387;;;;
2020/07/30 01:58:58;;;;;;;7.6;5.8;;;;;;;18.11;86.79492;941.5337;;;;
2020/07/30 02:01:27;;;;;;;9.8;6.2;;;;;;;18.17;86.29492;941.4547;;;;
2020/07/30 02:03:57;;;;;;;11.8;6.3;;;;;;;18.23;85.91309;941.5112;;;;
2020/07/30 02:06:28;;;;;;;11.7;6.4;;;;;;;18.22;85.8418;941.5146;;;;
2020/07/30 02:09:00;;;;;;;9.3;5.9;;;;;;;18.14;86.34863;941.4341;;;;
2020/07/30 02:11:25;;;;;;;6.7;5.7;;;;;;;18.13;86.36914;941.5158;;;;
2020/07/30 02:13:50;;;;;;;9;6.2;;;;;;;17.96;87.42676;941.4961;;;;
2020/07/30 02:16:15;;;;;;;6.7;5.9;;;;;;;18.05;86.84082;941.5588;;;;
2020/07/30 02:18:40;;;;;;;8.8;6.2;;;;;;;18.08;86.55762;941.5736;;;;
2020/07/30 02:21:09;;;;;;;8.6;6.2;;;;;;;18.02;86.71875;941.4637;;;;
2020/07/30 02:23:34;;;;;;;7.3;6.1;;;;;;;17.96;86.9873;941.4969;;;;
2020/07/30 02:26:02;;;;;;;11.5;6.5;;;;;;;17.88;87.76074;941.5253;;;;
2020/07/30 02:28:27;;;;;;;8.6;6.5;;;;;;;17.71;88.37695;941.4733;;;;
2020/07/30 02:30:54;;;;;;;9.9;7;;;;;;;17.66;88.83008;941.4914;;;;
2020/07/30 02:33:19;;;;;;;7.4;6.6;;;;;;;17.66;88.80664;941.4986;;;;
2020/07/30 02:35:54;;;;;;;8.8;6.7;;;;;;;17.62;89.00684;941.5076;;;;
2020/07/30 02:38:29;;;;;;;7.7;6.6;;;;;;;17.57;89.62598;941.4865;;;;
2020/07/30 02:40:54;;;;;;;7.6;6.4;;;;;;;17.53;89.96289;941.5442;;;;
2020/07/30 02:43:28;;;;;;;7.4;6.5;;;;;;;17.52;89.68457;941.5041;;;;
2020/07/30 02:46:05;;;;;;;8.6;7.1;;;;;;;17.44;90.03711;941.5687;;;;
2020/07/30 02:48:34;;;;;;;14.5;7.1;;;;;;;17.43;89.87305;941.5639;;;;
2020/07/30 02:50:59;;;;;;;7.3;6.6;;;;;;;17.38;89.91211;941.5706;;;;
2020/07/30 02:53:28;;;;;;;8.3;7.1;;;;;;;17.27;91.21973;941.5695;;;;
2020/07/30 02:56:00;;;;;;;10.9;6.8;;;;;;;17.38;90.41992;941.532;;;;
2020/07/30 02:58:30;;;;;;;9;6.6;;;;;;;17.41;90.00977;941.5485;;;;
2020/07/30 03:00:59;;;;;;;9.7;7.3;;;;;;;17.28;91.11914;941.6394;;;;
2020/07/30 03:03:29;;;;;;;8.6;7;;;;;;;17.38;90.9209;941.544;;;;
2020/07/30 03:06:00;;;;;;;11.9;6.9;;;;;;;17.54;89.62988;941.5658;;;;
2020/07/30 03:08:30;;;;;;;8.7;6.5;;;;;;;17.62;88.79785;941.6381;;;;
2020/07/30 03:10:59;;;;;;;7.7;6.4;;;;;;;17.64;88.47852;941.5963;;;;
2020/07/30 03:13:24;;;;;;;10.5;5.9;;;;;;;17.67;88.27441;941.6498;;;;
2020/07/30 03:15:51;;;;;;;11;6.9;;;;;;;17.62;88.34668;941.6738;;;;
2020/07/30 03:18:20;;;;;;;8.7;6.4;;;;;;;17.62;88.3584;941.652;;;;
2020/07/30 03:20:45;;;;;;;9.6;6.9;;;;;;;17.47;89.45508;941.6641;;;;
2020/07/30 03:23:14;;;;;;;10.3;6.9;;;;;;;17.38;89.93359;941.6584;;;;
2020/07/30 03:25:39;;;;;;;7.9;6.3;;;;;;;17.46;89.64844;941.698;;;;
2020/07/30 03:28:04;;;;;;;10.2;7.1;;;;;;;17.32;89.93164;941.6929;;;;
2020/07/30 03:30:33;;;;;;;8.7;6.9;;;;;;;17.18;90.91309;941.6547;;;;
2020/07/30 03:33:03;;;;;;;13;7.3;;;;;;;17.36;90.01074;941.7358;;;;
2020/07/30 03:35:28;;;;;;;9.2;7;;;;;;;17.47;89.19727;941.7776;;;;
2020/07/30 03:37:57;;;;;;;11.6;6.9;;;;;;;17.56;88.48535;941.7444;;;;
2020/07/30 03:40:22;;;;;;;9.1;7.2;;;;;;;17.5;89.27246;941.7081;;;;
2020/07/30 03:42:48;;;;;;;9.4;6.9;;;;;;;17.55;88.81738;941.7485;;;;
2020/07/30 03:45:13;;;;;;;7.3;6.4;;;;;;;17.57;88.44043;941.824;;;;
2020/07/30 03:47:38;;;;;;;8;6.4;;;;;;;17.64;87.80469;941.7896;;;;
2020/07/30 03:50:08;;;;;;;9.2;6.9;;;;;;;17.49;88.55176;941.7049;;;;
2020/07/30 03:52:33;;;;;;;9.3;7;;;;;;;17.45;88.5791;941.7424;;;;
2020/07/30 03:54:58;;;;;;;9.2;6.9;;;;;;;17.35;89.06934;941.7175;;;;
2020/07/30 03:57:27;;;;;;;10.1;6.7;;;;;;;17.41;88.58301;941.6774;;;;
2020/07/30 03:59:53;;;;;;;10.3;7.2;;;;;;;17.35;88.7793;941.678;;;;
2020/07/30 04:02:34;;;;;;;7.8;7;;;;;;;17.35;88.82617;941.7029;;;;
2020/07/30 04:04:59;;;;;;;8.9;6.6;;;;;;;17.21;89.39941;941.7492;;;;
2020/07/30 04:07:24;;;;;;;8.7;6.7;;;;;;;17.2;89.55957;941.7623;;;;
2020/07/30 04:09:52;;;;;;;9.4;7;;;;;;;17.2;89.70117;941.722;;;;
2020/07/30 04:12:17;;;;;;;9.3;7;;;;;;;17.18;89.66016;941.7247;;;;
2020/07/30 04:14:43;;;;;;;8.7;7;;;;;;;17.2;89.77051;941.7509;;;;
2020/07/30 04:17:09;;;;;;;13;7.1;;;;;;;17.29;89.44922;941.7029;;;;
2020/07/30 04:19:36;;;;;;;13.2;7;;;;;;;17.33;89.1123;941.7394;;;;
2020/07/30 04:22:01;;;;;;;10;7;;;;;;;17.36;89.29199;941.7126;;;;
2020/07/30 04:24:26;;;;;;;11.1;7.2;;;;;;;17.4;88.80176;941.7217;;;;
2020/07/30 04:26:51;;;;;;;8.5;6.7;;;;;;;17.36;89.0127;941.7817;;;;
2020/07/30 04:29:19;;;;;;;12.4;7;;;;;;;17.4;88.83691;941.7498;;;;
2020/07/30 04:31:48;;;;;;;9.5;6.8;;;;;;;17.29;89.44922;941.8123;;;;
2020/07/30 04:34:19;;;;;;;14.1;7.6;;;;;;;17.33;89.55273;941.8119;;;;
2020/07/30 04:36:49;;;;;;;7.2;6.5;;;;;;;17.31;89.63965;941.7927;;;;
2020/07/30 04:39:14;;;;;;;9.2;7;;;;;;;17.29;89.87012;941.8517;;;;
2020/07/30 04:41:48;;;;;;;11.9;7.1;;;;;;;17.34;89.48535;941.8608;;;;
2020/07/30 04:44:15;;;;;;;13;7.4;;;;;;;17.44;89.43359;941.8295;;;;
2020/07/30 04:46:40;;;;;;;15.5;10.1;;;;;;;17.55;88.81934;941.9031;;;;
2020/07/30 04:49:05;;;;;;;12.1;7.7;;;;;;;17.63;87.79199;941.9194;;;;
2020/07/30 04:51:30;;;;;;;13;8.1;;;;;;;17.69;87.97852;941.9278;;;;
2020/07/30 04:53:55;;;;;;;12.9;7.4;;;;;;;17.76;87.99121;941.9503;;;;
2020/07/30 04:56:21;;;;;;;14.1;8.3;;;;;;;17.81;87.1543;941.9883;;;;
2020/07/30 04:58:46;;;;;;;12.5;8.6;;;;;;;17.84;86.45313;942.0028;;;;
2020/07/30 05:01:19;;;;;;;10.1;7.7;;;;;;;17.91;86.41895;942.0696;;;;
2020/07/30 05:03:45;;;;;;;9;7.7;;;;;;;17.95;86.28711;942.0087;;;;
2020/07/30 05:06:10;;;;;;;11.3;7.8;;;;;;;18;86.35352;942.1482;;;;
2020/07/30 05:08:36;;;;;;;10.4;7.2;;;;;;;18.07;85.92871;942.0695;;;;
2020/07/30 05:11:06;;;;;;;11.9;7.6;;;;;;;18.18;85.47266;942.1404;;;;
2020/07/30 05:13:34;;;;;;;13.7;7.5;;;;;;;18.24;85.625;942.1101;;;;
2020/07/30 05:16:01;;;;;;;12.2;7.1;;;;;;;18.32;85.41797;942.1364;;;;
2020/07/30 05:18:27;;;;;;;15.8;7.6;;;;;;;18.4;84.95898;942.0868;;;;
2020/07/30 05:20:52;;;;;;;13.2;7;;;;;;;18.45;84.73535;942.1372;;;;
2020/07/30 05:23:18;;;;;;;12.1;7;;;;;;;18.5;84.18555;942.1713;;;;
2020/07/30 05:25:44;;;;;;;12.5;7.7;;;;;;;18.52;84.98145;942.1426;;;;
2020/07/30 05:28:09;;;;;;;12.9;5.8;;;;;;;19.11;83.33691;942.09;;;;
2020/07/30 05:30:38;;;;;;;8.9;5;;;;;;;20.44;77.93457;942.0701;;;;
2020/07/30 05:33:08;;;;;;;15.2;4.6;;;;;;;22.09;70.72363;942.0811;;;;
2020/07/30 05:35:39;;;;;;;7.9;4.5;;;;;;;23.08;66.7793;942.054;;;;
2020/07/30 05:38:06;;;;;;;14.5;4.6;;;;;;;24.39;62.81836;942.065;;;;
2020/07/30 05:40:35;;;;;;;12.6;4.4;;;;;;;25.42;59.18359;942.0069;;;;
2020/07/30 05:43:04;;;;;;;7.8;4;;;;;;;26.2;56.42285;942.09;;;;
2020/07/30 05:45:36;;;;;;;12.9;4.2;;;;;;;26.34;55.75488;942.0873;;;;
2020/07/30 05:48:03;;;;;;;15.6;4.7;;;;;;;26.88;53.97266;942.061;;;;
2020/07/30 05:50:32;;;;;;;7.5;3.6;;;;;;;27.15;53.43555;942.0941;;;;
2020/07/30 05:52:57;;;;;;;7.3;3.5;;;;;;;27.1;53.39453;942.0891;;;;
2020/07/30 05:55:23;;;;;;;6.7;3.4;;;;;;;27.06;52.79688;942.0628;;;;
2020/07/30 05:57:50;;;;;;;6.7;3.6;;;;;;;27.21;52.93359;942.1077;;;;
2020/07/30 06:00:15;;;;;;;10.4;3.6;;;;;;;27.43;52.2832;942.0842;;;;
2020/07/30 06:02:42;;;;;;;5;3.1;;;;;;;27.73;51.35547;942.0852;;;;
2020/07/30 06:05:08;;;;;;;5.2;3.2;;;;;;;27.93;50.38184;942.058;;;;
2020/07/30 06:07:34;;;;;;;5.8;3.2;;;;;;;28.16;50.02734;942.0652;;;;
2020/07/30 06:09:59;;;;;;;16.4;4.1;;;;;;;28.74;48.90234;942.1021;;;;
2020/07/30 06:12:24;;;;;;;24;5.5;;;;;;;29.81;46.21484;942.0822;;;;
2020/07/30 06:14:53;;;;;;;9;3.6;;;;;;;29.49;46.4082;942.0736;;;;
2020/07/30 06:17:18;;;;;;;5.9;3.5;;;;;;;29.07;47.81836;942.0861;;;;
2020/07/30 06:19:44;;;;;;;8.7;4.3;;;;;;;29.45;46.22461;942.0989;;;;
2020/07/30 06:22:13;;;;;;;7.8;4.4;;;;;;;29.95;45.7041;942.12;;;;
2020/07/30 06:24:40;;;;;;;5.9;4;;;;;;;30.9;43.63574;942.0569;;;;
2020/07/30 06:27:06;;;;;;;7.7;3.9;;;;;;;30.9;44.83301;942.0527;;;;
2020/07/30 06:29:31;;;;;;;7;3.1;;;;;;;31.2;43.87988;942.0875;;;;
2020/07/30 06:31:57;;;;;;;4.2;2.6;;;;;;;31.79;41.23047;942.0914;;;;
2020/07/30 06:34:22;;;;;;;5.8;2.8;;;;;;;32.41;42.19922;942.0539;;;;
2020/07/30 06:36:48;;;;;;;5.3;3;;;;;;;33.22;39.5459;942.0991;;;;
2020/07/30 06:39:13;;;;;;;5.9;2.8;;;;;;;33.17;37.7998;942.0467;;;;
2020/07/30 06:41:38;;;;;;;3.6;2.6;;;;;;;33.44;38.39941;942.0753;;;;
2020/07/30 06:44:03;;;;;;;3.9;2.3;;;;;;;33.49;38.36719;942.025;;;;
2020/07/30 06:46:29;;;;;;;5.8;2.6;;;;;;;33.56;38.19238;942.0772;;;;
2020/07/30 06:48:54;;;;;;;3.6;2.7;;;;;;;34.11;37.31152;942.0559;;;;
2020/07/30 06:51:20;;;;;;;6.5;2.6;;;;;;;34.17;37.72656;942.0291;;;;
2020/07/30 06:53:45;;;;;;;4.4;2.7;;;;;;;34.35;39.05371;942.0437;;;;
2020/07/30 06:56:10;;;;;;;5.8;2.9;;;;;;;34.78;37.05273;941.9989;;;;
2020/07/30 06:58:35;;;;;;;4.9;2.7;;;;;;;35.7;35.46094;942.005;;;;
2020/07/30 07:01:03;;;;;;;3.4;2.5;;;;;;;36.1;32.94043;941.9996;;;;
2020/07/30 07:03:30;;;;;;;5.7;2.5;;;;;;;35.97;33.49902;941.9724;;;;
2020/07/30 07:05:57;;;;;;;7.1;3;;;;;;;35.59;33.83301;941.9487;;;;
2020/07/30 07:08:22;;;;;;;6.4;2.7;;;;;;;35.95;35.28711;941.9758;;;;
2020/07/30 07:10:48;;;;;;;3.8;2.5;;;;;;;35.27;33.99023;941.9246;;;;
2020/07/30 07:13:13;;;;;;;4.7;2.7;;;;;;;34.83;34.52539;941.9038;;;;
2020/07/30 07:15:53;;;;;;;5.4;3.4;;;;;;;35.24;34.73633;941.8607;;;;
2020/07/30 07:18:22;;;;;;;5.3;2.8;;;;;;;35.62;34.11426;941.8872;;;;
2020/07/30 07:20:51;;;;;;;4.1;2.7;;;;;;;36;33.74316;941.9306;;;;
2020/07/30 07:23:19;;;;;;;4.7;2.6;;;;;;;36.7;32.99512;941.8931;;;;
2020/07/30 07:25:44;;;;;;;6.8;2.6;;;;;;;37.82;32.56543;941.9359;;;;
2020/07/30 07:28:10;;;;;;;4.4;2.6;;;;;;;37.26;33.96875;941.9523;;;;
2020/07/30 07:30:39;;;;;;;5.3;2.5;;;;;;;37.52;31.70703;941.8997;;;;
2020/07/30 07:33:05;;;;;;;4.2;2.3;;;;;;;36.78;31.89941;941.8455;;;;
2020/07/30 07:35:31;;;;;;;4.7;2.4;;;;;;;37.05;33.08105;941.8342;;;;
2020/07/30 07:37:58;;;;;;;5;2.5;;;;;;;37.8;30.81641;941.8436;;;;
2020/07/30 07:40:24;;;;;;;3.7;2.4;;;;;;;38.66;29.3418;941.8375;;;;
2020/07/30 07:42:49;;;;;;;4.3;2.5;;;;;;;38.94;29.16504;941.8714;;;;
2020/07/30 07:45:16;;;;;;;3.7;2.5;;;;;;;39.21;30.55762;941.824;;;;
2020/07/30 07:47:41;;;;;;;3.3;2.3;;;;;;;39.63;28.94043;941.8309;;;;
2020/07/30 07:50:08;;;;;;;6.4;2.6;;;;;;;40.45;26.14844;941.8194;;;;
2020/07/30 07:52:33;;;;;;;4.3;2.3;;;;;;;40.84;26.3291;941.8132;;;;
2020/07/30 07:54:58;;;;;;;3.8;2.5;;;;;;;41.01;26.33887;941.8849;;;;
2020/07/30 07:57:23;;;;;;;6.2;2.6;;;;;;;40.74;26.92188;941.8564;;;;
2020/07/30 07:59:49;;;;;;;3.5;2.2;;;;;;;40.54;27.10547;941.8655;;;;
2020/07/30 08:02:18;;;;;;;4.1;2.2;;;;;;;40.75;26.8125;941.8748;;;;
2020/07/30 08:04:43;;;;;;;3;2.3;;;;;;;40.63;28.60059;941.8822;;;;
2020/07/30 08:07:11;;;;;;;7.9;2.7;;;;;;;40.7;28.28711;941.8929;;;;
2020/07/30 08:09:36;;;;;;;5.1;2.4;;;;;;;38.73;31.12305;941.8812;;;;
2020/07/30 08:12:09;;;;;;;3.6;2.5;;;;;;;39.18;29.66699;941.8903;;;;
2020/07/30 08:14:35;;;;;;;4.5;2.5;;;;;;;39.94;28.38672;941.8688;;;;
2020/07/30 08:17:01;;;;;;;4.7;2.8;;;;;;;40.38;29.26855;941.928;;;;
2020/07/30 08:19:26;;;;;;;6.2;3;;;;;;;40.21;27.09863;941.8803;;;;
2020/07/30 08:21:52;;;;;;;5.8;2.5;;;;;;;40.81;27.07227;941.8484;;;;
2020/07/30 08:24:17;;;;;;;6.2;2.5;;;;;;;40.85;28.00293;941.8286;;;;
2020/07/30 08:26:43;;;;;;;6;2.5;;;;;;;41.29;26.33008;941.825;;;;
2020/07/30 08:29:15;;;;;;;4;2.1;;;;;;;41.18;27.70508;941.8267;;;;
2020/07/30 08:31:40;;;;;;;4.4;2.1;;;;;;;41.37;25.61328;941.8039;;;;
2020/07/30 08:34:05;;;;;;;3.1;2.1;;;;;;;40.86;26.47656;941.8163;;;;
2020/07/30 08:36:32;;;;;;;4.2;2.1;;;;;;;40.58;27.01074;941.7572;;;;
2020/07/30 08:38:57;;;;;;;3;2.1;;;;;;;40.12;28.89844;941.7567;;;;
2020/07/30 08:41:22;;;;;;;4.8;2.5;;;;;;;40.17;28.2666;941.7659;;;;
2020/07/30 08:43:47;;;;;;;12.9;4.6;;;;;;;40.09;27.99414;941.7665;;;;
2020/07/30 08:46:17;;;;;;;12.7;5;;;;;;;40.31;26.28613;941.7661;;;;
2020/07/30 08:48:43;;;;;;;9.8;3.8;;;;;;;40.14;28.10742;941.7257;;;;
2020/07/30 08:51:09;;;;;;;17.7;5.8;;;;;;;39.67;29.47949;941.7715;;;;
2020/07/30 08:53:34;;;;;;;8.6;3.8;;;;;;;40.21;28.63574;941.7584;;;;
2020/07/30 08:56:08;;;;;;;4.9;2.6;;;;;;;39.99;29.86621;941.6965;;;;
2020/07/30 08:58:29;;;;;;;15.2;4.8;;;;;;;40.02;29.41699;941.7178;;;;
2020/07/30 09:01:41;;;;;;;7.9;3.2;;;;;;;39.66;29.30859;941.7425;;;;
2020/07/30 09:03:21;;;;;;;6.5;2.9;;;;;;;39.5;28.83496;941.7142;;;;
2020/07/30 09:05:54;;;;;;;7.6;3.2;;;;;;;39.47;28.56543;941.7106;;;;
2020/07/30 09:08:19;;;;;;;4.6;2.6;;;;;;;38.7;30.70703;941.7709;;;;
2020/07/30 09:10:46;;;;;;;5.6;2.5;;;;;;;38.74;30.67285;941.722;;;;
2020/07/30 09:13:14;;;;;;;6.8;2;;;;;;;38.15;31.2168;941.6629;;;;
2020/07/30 09:15:43;;;;;;;6.1;3.2;;;;;;;38.12;31.11719;941.7085;;;;
2020/07/30 09:18:08;;;;;;;7.9;2.2;;;;;;;38.18;30.27051;941.6658;;;;
2020/07/30 09:20:33;;;;;;;4.8;1.9;;;;;;;37.81;30.91504;941.6719;;;;
2020/07/30 09:22:59;;;;;;;5.2;2;;;;;;;36.99;33.74316;941.5978;;;;
2020/07/30 09:25:27;;;;;;;3.5;2;;;;;;;36.47;32.40918;941.5923;;;;
2020/07/30 09:27:55;;;;;;;7.3;2.4;;;;;;;36.25;33.18066;941.6373;;;;
2020/07/30 09:30:30;;;;;;;4.7;2.4;;;;;;;35.39;35.55762;941.6425;;;;
2020/07/30 09:32:55;;;;;;;5;1.9;;;;;;;35.22;35.47168;941.6534;;;;
2020/07/30 09:35:26;;;;;;;5.9;2;;;;;;;35;34.94824;941.6736;;;;
2020/07/30 09:37:56;;;;;;;3.3;1.9;;;;;;;35.09;34.56836;941.6542;;;;
2020/07/30 09:40:23;;;;;;;3.7;1.8;;;;;;;35.01;34.29785;941.634;;;;
2020/07/30 09:42:49;;;;;;;4.2;2.1;;;;;;;34.88;34.32324;941.6167;;;;
2020/07/30 09:45:28;;;;;;;4.7;2.1;;;;;;;34.67;35.1875;941.5596;;;;
2020/07/30 09:47:55;;;;;;;4.1;1.9;;;;;;;34.71;36.10645;941.5988;;;;
2020/07/30 09:50:25;;;;;;;5.1;2;;;;;;;34.75;35.91797;941.5481;;;;
2020/07/30 09:52:50;;;;;;;10.9;3;;;;;;;34.78;36.00391;941.5903;;;;
2020/07/30 09:55:22;;;;;;;7.1;2.4;;;;;;;34.38;37.06836;941.4733;;;;
2020/07/30 09:57:47;;;;;;;9.7;2.6;;;;;;;34.43;35.50684;941.5083;;;;
2020/07/30 10:00:33;;;;;;;5.2;2.2;;;;;;;34.32;35.65527;941.4509;;;;
2020/07/30 10:02:58;;;;;;;7.6;2.7;;;;;;;33.96;37.15527;941.5234;;;;
2020/07/30 10:05:23;;;;;;;5.8;2.3;;;;;;;34;36.31543;941.5027;;;;
2020/07/30 10:07:51;;;;;;;3.3;2;;;;;;;34.01;35.7998;941.5164;;;;
2020/07/30 10:10:19;;;;;;;14.6;2.9;;;;;;;34.33;36.16113;941.4153;;;;
2020/07/30 10:12:44;;;;;;;4.9;2.1;;;;;;;34.45;35.24316;941.3864;;;;
2020/07/30 10:15:10;;;;;;;6.3;2.3;;;;;;;34.42;36.3252;941.3691;;;;
2020/07/30 10:17:35;;;;;;;5.9;2.2;;;;;;;34.58;35.84375;941.3972;;;;
2020/07/30 10:20:00;;;;;;;4.6;2.4;;;;;;;34.81;35.77734;941.4149;;;;
2020/07/30 10:22:26;;;;;;;3.9;2.2;;;;;;;34.81;36.47656;941.3665;;;;
2020/07/30 10:24:50;;;;;;;4;2.4;;;;;;;34.59;36.01367;941.3544;;;;
2020/07/30 10:27:16;;;;;;;7.1;2.4;;;;;;;34.87;35.9873;941.3588;;;;
2020/07/30 10:29:41;;;;;;;4.3;2.4;;;;;;;34.96;36.37988;941.4207;;;;
2020/07/30 10:32:06;;;;;;;5.8;2.5;;;;;;;35.1;36.04199;941.3354;;;;
2020/07/30 10:34:31;;;;;;;4.1;2.7;;;;;;;35.18;35.96289;941.3606;;;;
2020/07/30 10:36:56;;;;;;;3.6;2.4;;;;;;;35.03;35.95117;941.2991;;;;
2020/07/30 10:39:24;;;;;;;3.5;2.2;;;;;;;35.31;36.10742;941.3016;;;;
2020/07/30 10:41:49;;;;;;;5.9;2.5;;;;;;;35.75;34.65527;941.3381;;;;
2020/07/30 10:44:14;;;;;;;3.3;2.1;;;;;;;35.68;34.48047;941.3189;;;;
2020/07/30 10:46:39;;;;;;;4;2.1;;;;;;;35.86;34.17871;941.2501;;;;
2020/07/30 10:49:04;;;;;;;4.6;2.4;;;;;;;36.04;33.67383;941.2194;;;;
2020/07/30 10:51:29;;;;;;;3.9;2.5;;;;;;;36.26;33.97949;941.1934;;;;
2020/07/30 10:53:54;;;;;;;9.1;3.9;;;;;;;36.29;33.63086;941.1548;;;;
2020/07/30 10:56:19;;;;;;;4.2;1.8;;;;;;;36.04;34.15625;941.1094;;;;
2020/07/30 10:58:44;;;;;;;4.9;2.4;;;;;;;36.35;33.48926;941.0883;;;;
2020/07/30 11:01:10;;;;;;;6.7;2.8;;;;;;;36.7;33.00781;941.1259;;;;
2020/07/30 11:03:35;;;;;;;5;2.1;;;;;;;36.87;32.17188;941.0895;;;;
2020/07/30 11:06:00;;;;;;;4.1;1.8;;;;;;;36.76;32.24902;941.0769;;;;
2020/07/30 11:08:28;;;;;;;3.9;2.1;;;;;;;36.35;32.4502;941.0519;;;;
2020/07/30 11:10:50;;;;;;;3.9;1.9;;;;;;;36.57;33.08203;940.9853;;;;
2020/07/30 11:13:15;;;;;;;6.7;2.1;;;;;;;36.76;32.99902;940.9705;;;;
2020/07/30 11:15:43;;;;;;;9.8;2.2;;;;;;;36.29;34.5498;940.9342;;;;
2020/07/30 11:18:08;;;;;;;4.4;2.1;;;;;;;36.31;33.58398;940.9128;;;;
2020/07/30 11:20:33;;;;;;;5.3;2;;;;;;;36.35;34.05859;940.8798;;;;
2020/07/30 11:22:58;;;;;;;10.8;2.4;;;;;;;36.09;33.99121;940.7798;;;;
2020/07/30 11:25:24;;;;;;;6.9;2.2;;;;;;;35.81;33.64453;940.7737;;;;
2020/07/30 11:27:49;;;;;;;3.5;2.1;;;;;;;35.68;34.73438;940.7619;;;;
2020/07/30 11:30:14;;;;;;;5.2;2.3;;;;;;;35.36;35.71191;940.7421;;;;
2020/07/30 11:32:39;;;;;;;3.2;1.9;;;;;;;34.95;36.54785;940.7285;;;;
2020/07/30 11:35:04;;;;;;;2.7;1.9;;;;;;;34.85;36.85352;940.6487;;;;
2020/07/30 11:37:29;;;;;;;5.7;2.2;;;;;;;34.64;36.29492;940.6163;;;;
2020/07/30 11:39:54;;;;;;;5.3;2.2;;;;;;;34.06;36.33301;940.6277;;;;
2020/07/30 11:42:20;;;;;;;4.9;2.1;;;;;;;33.71;38.26563;940.6163;;;;
2020/07/30 11:44:45;;;;;;;4.4;2.1;;;;;;;33.53;39.74219;940.6241;;;;
2020/07/30 11:47:10;;;;;;;3.9;2.2;;;;;;;33.35;40.14648;940.6443;;;;
2020/07/30 11:49:35;;;;;;;4.3;2;;;;;;;33;40.16406;940.5801;;;;
2020/07/30 11:52:01;;;;;;;4.1;2.5;;;;;;;32.73;41.07617;940.5992;;;;
2020/07/30 11:54:26;;;;;;;5.6;2.5;;;;;;;32.6;40.94336;940.6129;;;;
2020/07/30 11:56:52;;;;;;;5;2.4;;;;;;;32.14;41.22559;940.5504;;;;
2020/07/30 12:02:23;;;;;;;5.9;2.4;;;;;;;32.26;42.94043;940.5475;;;;
2020/07/30 12:06:33;;;;;;;5.9;2.5;;;;;;;31.82;44.32422;940.49;;;;
2020/07/30 12:08:57;;;;;;;8.2;2.8;;;;;;;31.65;44.71387;940.507;;;;
2020/07/30 12:11:23;;;;;;;5.5;2.6;;;;;;;31.66;44.41699;940.4691;;;;
2020/07/30 12:13:47;;;;;;;5.3;2.6;;;;;;;31.61;44.66309;940.4183;;;;
2020/07/30 12:16:12;;;;;;;5.1;2.4;;;;;;;31.62;45.7666;940.459;;;;
2020/07/30 12:18:41;;;;;;;6.2;2.6;;;;;;;31.47;44.8291;940.4361;;;;
2020/07/30 12:21:17;;;;;;;5.2;2.3;;;;;;;31.41;43.9375;940.4186;;;;
2020/07/30 12:23:45;;;;;;;3.9;2.3;;;;;;;31.36;46.2666;940.4003;;;;
2020/07/30 12:26:10;;;;;;;4.1;2.6;;;;;;;31.39;45.38379;940.3787;;;;
2020/07/30 12:28:45;;;;;;;7.4;2.7;;;;;;;31.35;45.35547;940.3667;;;;
2020/07/30 12:31:11;;;;;;;4.2;2.3;;;;;;;31.54;46.5;940.3412;;;;
2020/07/30 12:33:38;;;;;;;5.1;2.4;;;;;;;31.41;45.41992;940.3471;;;;
2020/07/30 12:36:09;;;;;;;7;2.6;;;;;;;31.23;44.35059;940.2977;;;;
2020/07/30 12:38:38;;;;;;;5.9;2.3;;;;;;;31.44;45.10059;940.2778;;;;
2020/07/30 12:41:03;;;;;;;3.4;2.4;;;;;;;31.63;45.04785;940.3231;;;;
2020/07/30 12:43:36;;;;;;;5.3;2.6;;;;;;;31.69;46.46777;940.2759;;;;
2020/07/30 12:46:01;;;;;;;7.4;2.6;;;;;;;31.66;44.89453;940.2778;;;;
2020/07/30 12:48:25;;;;;;;4.5;2.5;;;;;;;31.55;44.72852;940.2816;;;;
2020/07/30 12:50:50;;;;;;;5.6;2.4;;;;;;;31.58;45.11523;940.3071;;;;
2020/07/30 12:53:15;;;;;;;6.4;2.4;;;;;;;31.67;44.83691;940.2576;;;;
2020/07/30 12:55:40;;;;;;;4.7;2.5;;;;;;;31.55;45.2793;940.2173;;;;
2020/07/30 12:58:05;;;;;;;5;2.3;;;;;;;31.4;44.41406;940.2431;;;;
2020/07/30 13:00:35;;;;;;;9.9;2.5;;;;;;;31.36;44.65039;940.1998;;;;
2020/07/30 13:03:12;;;;;;;5;2.3;;;;;;;31.36;46.24219;940.1764;;;;
2020/07/30 13:05:43;;;;;;;4.2;2.4;;;;;;;31.37;46.02734;940.1761;;;;
2020/07/30 13:08:18;;;;;;;4.5;2.3;;;;;;;31.25;45.16699;940.1699;;;;
2020/07/30 13:10:42;;;;;;;5.6;2.6;;;;;;;31.31;46.21289;940.1135;;;;
2020/07/30 13:13:17;;;;;;;6.6;2.8;;;;;;;31.32;45.73535;940.1555;;;;
2020/07/30 13:15:41;;;;;;;4.7;2.4;;;;;;;31.34;45.02051;940.1746;;;;
2020/07/30 13:18:05;;;;;;;4.7;2.4;;;;;;;31.32;45.07715;940.1891;;;;
2020/07/30 13:20:30;;;;;;;5;2.4;;;;;;;31.18;45.67285;940.1936;;;;
2020/07/30 13:22:55;;;;;;;5;2.5;;;;;;;31.16;44.05664;940.1486;;;;
2020/07/30 13:25:20;;;;;;;4.4;2.7;;;;;;;31.29;45.99609;940.1411;;;;
2020/07/30 13:27:46;;;;;;;5.3;2.4;;;;;;;31.4;44.83301;940.067;;;;
2020/07/30 13:30:16;;;;;;;4.6;2.6;;;;;;;31.46;44.9834;940.117;;;;
2020/07/30 13:32:41;;;;;;;7.3;2.7;;;;;;;31.49;45.64453;940.0922;;;;
2020/07/30 13:35:06;;;;;;;5.7;2.7;;;;;;;31.54;43.9375;940.0643;;;;
2020/07/30 13:37:31;;;;;;;6.1;2.4;;;;;;;31.37;44.59082;940.0572;;;;
2020/07/30 13:39:56;;;;;;;5.6;2.4;;;;;;;31.49;44.00488;940.0817;;;;
2020/07/30 13:42:22;;;;;;;5.8;2.4;;;;;;;31.34;43.48828;940.0708;;;;
2020/07/30 13:44:46;;;;;;;6.6;2.5;;;;;;;31.22;45.48633;940.0861;;;;
2020/07/30 13:47:11;;;;;;;5;2.7;;;;;;;31.18;44.34473;940.002;;;;
2020/07/30 13:49:36;;;;;;;4.4;2.6;;;;;;;31.17;44.61914;940.0435;;;;
2020/07/30 13:52:02;;;;;;;5.3;2.7;;;;;;;31.3;44.89453;940.0944;;;;
2020/07/30 13:54:27;;;;;;;4.8;2.6;;;;;;;31.36;44.87793;940.0513;;;;
2020/07/30 13:56:52;;;;;;;6.8;2.8;;;;;;;31.37;45.09375;940.072;;;;
2020/07/30 13:59:21;;;;;;;4.3;2.4;;;;;;;31.27;43.92383;940.1175;;;;
2020/07/30 14:01:46;;;;;;;3.2;2.5;;;;;;;31.24;44.9375;940.08;;;;
2020/07/30 14:04:12;;;;;;;5.4;2.2;;;;;;;31.15;44.15137;940.1174;;;;
2020/07/30 14:06:37;;;;;;;4.3;2.4;;;;;;;31.08;45.06445;940.0964;;;;
2020/07/30 14:09:03;;;;;;;5.7;2.5;;;;;;;31.1;46.17871;940.0984;;;;
2020/07/30 14:11:28;;;;;;;5;2.8;;;;;;;31.11;46.09668;940.1135;;;;
2020/07/30 14:13:53;;;;;;;5.8;2.6;;;;;;;31.13;45.26074;940.0908;;;;
2020/07/30 14:16:18;;;;;;;5.1;2.6;;;;;;;31.22;45.04297;940.0048;;;;
2020/07/30 14:18:43;;;;;;;9.6;2.9;;;;;;;30.71;45.08789;940.0432;;;;
2020/07/30 14:21:08;;;;;;;6.5;2.4;;;;;;;30.73;45.58008;940.0181;;;;
2020/07/30 14:23:34;;;;;;;8.8;2.9;;;;;;;30.64;45.6543;940.0363;;;;
2020/07/30 14:26:00;;;;;;;7;2.5;;;;;;;30.47;45.41113;940.0067;;;;
2020/07/30 14:28:26;;;;;;;3.7;2.3;;;;;;;30.52;45.45215;939.9606;;;;